Time;durP1;ratioP1;P1;durP2;ratioP2;P2;SDS_P1;SDS_P2;PMS_P1;PMS_P2;Temp;Humidity;BMP_temperature;BMP_pressure;BME280_temperature;BME280_humidity;BME280_pressure;Samples;Min_cycle;Max_cycle;Signal;HPM_P1;HPM_P2
2024/01/07 00:01:32;;;;;;;6.47;1.60;;;;;;;-0.85;99.67;102076.97;4987788;28;20243;-42
2024/01/07 00:03:57;;;;;;;6.47;1.70;;;;;;;-0.87;99.87;102079.56;4988145;28;20300;-41
2024/01/07 00:06:23;;;;;;;2.85;1.80;;;;;;;-0.89;100.00;102081.25;4991365;28;20295;-41
2024/01/07 00:08:48;;;;;;;5.80;1.88;;;;;;;-0.86;100.00;102090.97;4989512;28;20201;-42
2024/01/07 00:11:14;;;;;;;4.60;1.73;;;;;;;-0.87;100.00;102092.69;4994286;28;20193;-44
2024/01/07 00:13:39;;;;;;;4.70;1.83;;;;;;;-0.87;100.00;102099.72;4986415;28;20205;-42
2024/01/07 00:16:05;;;;;;;4.28;1.70;;;;;;;-0.86;100.00;102102.38;4992844;28;20189;-41
2024/01/07 00:18:31;;;;;;;3.22;1.50;;;;;;;-0.81;100.00;102101.59;4994132;28;20606;-42
2024/01/07 00:20:56;;;;;;;2.67;1.05;;;;;;;-0.81;100.00;102101.59;4986170;28;20193;-40
2024/01/07 00:23:22;;;;;;;3.90;1.42;;;;;;;-0.75;100.00;102099.16;4988094;28;20239;-42
2024/01/07 00:25:47;;;;;;;3.97;1.40;;;;;;;-0.79;100.00;102110.44;4987052;28;20276;-43
2024/01/07 00:28:13;;;;;;;4.15;1.48;;;;;;;-0.81;100.00;102113.03;4994356;28;20195;-43
2024/01/07 00:30:38;;;;;;;4.85;1.52;;;;;;;-0.79;100.00;102123.59;4991955;28;20185;-42
2024/01/07 00:33:04;;;;;;;1.77;1.52;;;;;;;-0.81;100.00;102112.13;4986838;28;20216;-42
2024/01/07 00:35:30;;;;;;;3.03;1.70;;;;;;;-0.81;100.00;102127.94;4991721;28;20263;-44
2024/01/07 00:37:56;;;;;;;2.05;1.27;;;;;;;-0.75;100.00;102126.34;4989688;28;20199;-42
2024/01/07 00:40:23;;;;;;;2.80;1.95;;;;;;;-0.84;100.00;102126.97;4988518;28;20251;-43
2024/01/07 00:42:48;;;;;;;2.47;1.55;;;;;;;-0.79;100.00;102137.63;4991790;28;20195;-43
2024/01/07 00:45:14;;;;;;;2.50;1.30;;;;;;;-0.81;100.00;102135.81;4994402;28;20241;-40
2024/01/07 00:47:41;;;;;;;3.72;1.77;;;;;;;-0.82;100.00;102132.31;4989802;28;20605;-43
2024/01/07 00:50:06;;;;;;;2.47;1.25;;;;;;;-0.84;99.99;102126.97;4966519;28;20190;-41
2024/01/07 00:52:32;;;;;;;4.47;1.23;;;;;;;-0.79;100.00;102137.63;4982551;28;20239;-42
2024/01/07 00:54:57;;;;;;;3.22;1.13;;;;;;;-0.79;99.47;102134.13;4987445;28;20577;-42
2024/01/07 00:57:23;;;;;;;3.35;1.08;;;;;;;-0.78;99.06;102133.28;4952870;28;20189;-44
2024/01/07 00:59:50;;;;;;;5.93;1.30;;;;;;;-0.79;99.00;102137.63;4989484;28;20473;-43
2024/01/07 01:02:16;;;;;;;2.42;0.88;;;;;;;-0.81;98.76;102138.44;4972161;28;20185;-42
2024/01/07 01:04:42;;;;;;;1.73;1.17;;;;;;;-0.81;98.34;102138.44;4990518;28;20221;-44
2024/01/07 01:07:07;;;;;;;5.28;1.15;;;;;;;-0.73;98.41;102131.69;4958697;28;20614;-41
2024/01/07 01:09:34;;;;;;;2.45;1.42;;;;;;;-0.80;98.51;102140.25;4985198;28;20181;-41
2024/01/07 01:11:59;;;;;;;3.67;1.40;;;;;;;-0.84;98.19;102132.25;4994862;28;20189;-41
2024/01/07 01:14:27;;;;;;;3.00;1.23;;;;;;;-0.80;98.74;102142.88;4985595;28;20212;-42
2024/01/07 01:16:52;;;;;;;3.67;2.08;;;;;;;-0.91;98.78;102146.06;4973078;28;20185;-42
2024/01/07 01:19:18;;;;;;;5.07;2.40;;;;;;;-1.01;100.00;102154.53;4987401;28;20193;-42
2024/01/07 01:21:44;;;;;;;8.35;2.70;;;;;;;-0.99;100.00;102150.19;4974185;28;20604;-43
2024/01/07 01:24:09;;;;;;;4.40;2.33;;;;;;;-1.07;100.00;102175.41;4968657;28;20210;-43
2024/01/07 01:26:35;;;;;;;3.15;1.90;;;;;;;-1.07;100.00;102180.66;4975626;28;20219;-42
2024/01/07 01:29:00;;;;;;;7.00;2.35;;;;;;;-1.02;100.00;102180.81;4969679;28;20218;-40
2024/01/07 01:31:26;;;;;;;4.65;2.67;;;;;;;-1.02;100.00;102197.47;4968903;28;20178;-43
2024/01/07 01:33:51;;;;;;;6.95;3.03;;;;;;;-1.03;100.00;102193.03;4980899;28;20707;-42
2024/01/07 01:36:16;;;;;;;5.55;2.55;;;;;;;-1.05;100.00;102208.78;4970685;28;20266;-44
2024/01/07 01:38:42;;;;;;;6.18;2.55;;;;;;;-1.12;100.00;102216.41;4969409;28;20249;-44
2024/01/07 01:41:08;;;;;;;4.57;2.25;;;;;;;-1.10;100.00;102212.09;4983981;28;20552;-40
2024/01/07 01:43:33;;;;;;;9.13;2.50;;;;;;;-1.11;100.00;102221.75;4989661;28;20684;-42
2024/01/07 01:45:59;;;;;;;5.95;2.38;;;;;;;-1.12;100.00;102224.31;4991912;28;20274;-40
2024/01/07 01:48:26;;;;;;;6.38;2.47;;;;;;;-1.11;100.00;102228.75;4967440;28;20225;-43
2024/01/07 01:50:54;;;;;;;7.03;2.35;;;;;;;-1.09;100.00;102230.56;4989516;28;20200;-42
2024/01/07 01:53:19;;;;;;;3.88;2.47;;;;;;;-1.14;100.00;102229.50;4984339;28;20208;-44
2024/01/07 01:55:45;;;;;;;3.05;1.73;;;;;;;-1.13;100.00;102226.06;4988946;28;20676;-42
2024/01/07 01:58:13;;;;;;;4.15;2.35;;;;;;;-1.09;100.00;102220.06;4971662;28;20596;-42
2024/01/07 02:00:39;;;;;;;4.25;1.70;;;;;;;-1.05;100.00;102215.75;4969164;28;20205;-41
2024/01/07 02:03:05;;;;;;;1.58;1.05;;;;;;;-1.02;100.00;102217.63;4975875;28;20205;-40
2024/01/07 02:05:31;;;;;;;2.58;0.98;;;;;;;-0.97;100.00;102210.75;4985196;28;20185;-41
2024/01/07 02:07:57;;;;;;;2.13;1.00;;;;;;;-0.90;100.00;102213.63;4972210;28;20597;-44
2024/01/07 02:10:23;;;;;;;2.40;1.48;;;;;;;-0.96;100.00;102213.44;4991634;28;20193;-43
2024/01/07 02:12:49;;;;;;;1.60;1.30;;;;;;;-0.96;100.00;102199.38;4970112;28;20196;-42
2024/01/07 02:15:15;;;;;;;3.28;1.40;;;;;;;-0.90;100.00;102195.19;4971405;28;20213;-39
2024/01/07 02:17:53;;;;;;;1.77;1.40;;;;;;;-1.05;100.00;102205.25;4977153;28;20188;-40
2024/01/07 02:20:18;;;;;;;3.60;1.20;;;;;;;-1.05;100.00;102198.28;4975051;28;20192;-41
2024/01/07 02:22:44;;;;;;;1.90;0.98;;;;;;;-1.01;99.70;102198.34;4987082;28;20186;-42
2024/01/07 02:25:09;;;;;;;3.40;1.70;;;;;;;-1.08;100.00;102207.78;4963648;28;20680;-41
2024/01/07 02:27:35;;;;;;;7.22;2.63;;;;;;;-1.18;100.00;102213.59;4967748;28;20169;-44
2024/01/07 02:30:00;;;;;;;4.30;2.33;;;;;;;-1.28;100.00;102230.81;4985361;28;20617;-44
2024/01/07 02:32:26;;;;;;;4.85;2.70;;;;;;;-1.32;100.00;102236.81;4988975;28;20205;-43
2024/01/07 02:34:52;;;;;;;9.80;2.83;;;;;;;-1.36;100.00;102248.06;4973158;28;20271;-41
2024/01/07 02:37:18;;;;;;;4.97;2.72;;;;;;;-1.33;100.00;102261.34;4984471;28;20209;-43
2024/01/07 02:39:44;;;;;;;4.53;2.75;;;;;;;-1.36;100.00;102266.47;4967437;28;20196;-44
2024/01/07 02:42:10;;;;;;;9.88;2.92;;;;;;;-1.43;100.00;102268.00;4970110;28;20189;-42
2024/01/07 02:44:35;;;;;;;4.97;2.78;;;;;;;-1.46;100.00;102270.53;4984780;28;20598;-42
2024/01/07 02:47:01;;;;;;;3.80;2.88;;;;;;;-1.45;100.00;102285.44;4983118;28;20665;-45
2024/01/07 02:49:28;;;;;;;4.47;3.05;;;;;;;-1.52;100.00;102284.34;4966034;28;20188;-43
2024/01/07 02:51:54;;;;;;;8.43;2.88;;;;;;;-1.54;100.00;102290.41;4967855;28;20264;-43
2024/01/07 02:54:19;;;;;;;5.32;2.95;;;;;;;-1.59;100.00;102326.16;4988962;28;20295;-41
2024/01/07 02:56:45;;;;;;;4.85;2.30;;;;;;;-1.56;100.00;102299.97;4983361;28;20178;-41
2024/01/07 02:59:10;;;;;;;7.97;2.55;;;;;;;-1.63;100.00;102309.34;4989319;28;20647;-41
2024/01/07 03:01:40;;;;;;;4.20;2.67;;;;;;;-1.62;100.00;102308.50;4971414;28;20221;-42
2024/01/07 03:04:16;;;;;;;3.10;2.63;;;;;;;-1.67;100.00;102310.09;4988441;28;20213;-41
2024/01/07 03:06:41;;;;;;;8.20;2.63;;;;;;;-1.66;100.00;102311.91;4977789;28;20546;-45
2024/01/07 03:09:07;;;;;;;4.88;2.47;;;;;;;-1.70;100.00;102310.88;4982348;28;20186;-42
2024/01/07 03:11:33;;;;;;;6.63;2.70;;;;;;;-1.76;100.00;102315.91;4970813;28;20271;-42
2024/01/07 03:13:59;;;;;;;5.05;2.42;;;;;;;-1.76;100.00;102315.91;4983496;28;20210;-42
2024/01/07 03:16:26;;;;;;;6.15;2.15;;;;;;;-1.80;100.00;102324.50;4982813;28;20268;-41
2024/01/07 03:18:51;;;;;;;6.60;2.58;;;;;;;-1.78;100.00;102317.59;4987328;28;20611;-42
2024/01/07 03:21:22;;;;;;;5.45;2.50;;;;;;;-1.77;100.00;102323.72;4992921;28;20284;-41
2024/01/07 03:23:49;;;;;;;4.47;2.45;;;;;;;-1.81;100.00;102328.00;4988674;28;20217;-40
2024/01/07 03:26:16;;;;;;;4.57;2.67;;;;;;;-1.82;100.00;102330.56;4988789;28;20208;-40
2024/01/07 03:28:42;;;;;;;8.93;2.40;;;;;;;-1.92;100.00;102337.22;4988349;28;20671;-40
2024/01/07 03:31:09;;;;;;;3.92;2.63;;;;;;;-1.97;100.00;102333.50;4986473;28;20205;-42
2024/01/07 03:33:37;;;;;;;3.38;2.30;;;;;;;-2.04;100.00;102324.50;4986980;28;20204;-43
2024/01/07 03:36:10;;;;;;;3.60;2.58;;;;;;;-2.06;100.00;102339.31;4980548;28;20205;-41
2024/01/07 03:38:36;;;;;;;4.00;2.42;;;;;;;-2.13;100.00;102345.16;4986582;28;20646;-44
2024/01/07 03:41:02;;;;;;;4.07;2.30;;;;;;;-2.17;100.00;102359.91;4983353;28;20212;-44
2024/01/07 03:43:28;;;;;;;3.90;2.20;;;;;;;-2.20;100.00;102338.78;4993189;28;20576;-44
2024/01/07 03:45:53;;;;;;;8.23;2.78;;;;;;;-2.22;100.00;102350.97;4989077;28;20185;-44
2024/01/07 03:48:19;;;;;;;4.78;2.30;;;;;;;-2.20;100.00;102354.53;4988286;28;20651;-43
2024/01/07 03:50:45;;;;;;;5.97;2.50;;;;;;;-2.22;100.00;102360.56;4990599;28;20177;-42
2024/01/07 03:53:10;;;;;;;6.75;2.30;;;;;;;-2.16;100.00;102360.81;4986692;28;20671;-40
2024/01/07 03:55:36;;;;;;;2.58;2.17;;;;;;;-2.14;100.00;102344.28;4988327;28;20268;-40
2024/01/07 03:58:02;;;;;;;3.97;2.25;;;;;;;-2.09;100.00;102353.22;4989016;28;20619;-43
2024/01/07 04:00:28;;;;;;;4.13;2.30;;;;;;;-2.05;100.00;102358.59;4990644;28;20661;-41
2024/01/07 04:02:54;;;;;;;4.22;2.10;;;;;;;-2.02;100.00;102356.09;4980942;28;20217;-40
2024/01/07 04:05:19;;;;;;;3.70;2.03;;;;;;;-1.99;100.00;102356.19;4987772;28;20201;-42
2024/01/07 04:07:45;;;;;;;3.80;2.72;;;;;;;-1.95;100.00;102361.59;4989337;28;20186;-41
2024/01/07 04:10:10;;;;;;;5.78;2.45;;;;;;;-1.96;100.00;102364.19;4993906;28;20632;-43
2024/01/07 04:12:36;;;;;;;5.70;2.53;;;;;;;-1.92;100.00;102360.84;4985495;28;20189;-41
2024/01/07 04:15:02;;;;;;;4.57;2.35;;;;;;;-1.87;100.00;102369.78;4987727;28;20209;-43
2024/01/07 04:17:28;;;;;;;3.45;2.33;;;;;;;-1.94;100.00;102380.91;4991953;28;20187;-40
2024/01/07 04:19:54;;;;;;;3.42;2.67;;;;;;;-1.89;100.00;102374.09;4984178;28;20750;-45
2024/01/07 04:22:20;;;;;;;4.20;2.72;;;;;;;-1.88;100.00;102382.03;4991288;28;20192;-44
2024/01/07 04:24:45;;;;;;;5.53;2.65;;;;;;;-1.89;100.00;102374.97;4987337;28;20213;-41
2024/01/07 04:27:11;;;;;;;3.08;2.33;;;;;;;-1.89;100.00;102377.59;4987502;28;20193;-41
2024/01/07 04:29:36;;;;;;;7.65;2.75;;;;;;;-1.93;100.00;102380.06;4995594;28;20176;-43
2024/01/07 04:32:02;;;;;;;6.38;3.85;;;;;;;-1.92;100.00;102392.38;4986294;28;20745;-42
2024/01/07 04:34:28;;;;;;;7.57;2.55;;;;;;;-1.96;100.00;102388.72;4990158;28;20284;-43
2024/01/07 04:36:53;;;;;;;5.43;2.15;;;;;;;-1.94;100.00;102394.03;4985885;28;20263;-43
2024/01/07 04:39:19;;;;;;;4.13;2.17;;;;;;;-2.01;100.00;102392.00;4983304;28;20200;-41
2024/01/07 04:41:44;;;;;;;5.32;2.65;;;;;;;-2.06;100.00;102389.19;4985251;28;20559;-41
2024/01/07 04:44:09;;;;;;;5.82;2.03;;;;;;;-2.07;100.00;102395.31;4985179;28;20222;-43
2024/01/07 04:46:38;;;;;;;3.78;2.33;;;;;;;-2.09;100.00;102392.59;4984757;28;20186;-42
2024/01/07 04:49:05;;;;;;;4.80;2.47;;;;;;;-2.13;100.00;102387.19;4986259;28;20185;-42
2024/01/07 04:51:31;;;;;;;6.72;2.05;;;;;;;-2.12;100.00;102395.13;4987860;28;20721;-40
2024/01/07 04:53:56;;;;;;;3.50;2.40;;;;;;;-2.19;100.00;102394.81;4981304;28;20198;-43
2024/01/07 04:56:22;;;;;;;5.88;2.55;;;;;;;-2.19;100.00;102410.56;4984209;28;20197;-42
2024/01/07 04:58:47;;;;;;;3.38;2.83;;;;;;;-2.16;100.00;102408.97;4983814;28;20723;-41
2024/01/07 05:01:13;;;;;;;6.00;2.97;;;;;;;-2.16;100.00;102410.69;4987338;28;20205;-43
2024/01/07 05:03:38;;;;;;;7.07;3.20;;;;;;;-2.19;100.00;102416.69;4975836;28;20223;-43
2024/01/07 05:06:04;;;;;;;7.32;2.78;;;;;;;-2.23;100.00;102417.44;4981589;28;20597;-42
2024/01/07 05:08:30;;;;;;;4.68;2.55;;;;;;;-2.21;100.00;102425.34;4983851;28;20211;-44
2024/01/07 05:10:56;;;;;;;5.82;2.58;;;;;;;-2.27;100.00;102420.78;4981865;28;20178;-41
2024/01/07 05:13:22;;;;;;;6.20;2.67;;;;;;;-2.29;100.00;102419.81;4985432;28;20775;-42
2024/01/07 05:15:53;;;;;;;4.03;2.00;;;;;;;-2.36;100.00;102430.88;4983339;28;20208;-41
2024/01/07 05:18:24;;;;;;;5.53;2.75;;;;;;;-2.28;100.00;102429.47;4984681;28;20196;-41
2024/01/07 05:20:50;;;;;;;4.40;2.47;;;;;;;-2.36;100.00;102431.81;4986156;28;20240;-42
2024/01/07 05:23:16;;;;;;;4.70;2.80;;;;;;;-2.35;100.00;102440.56;4975898;28;20205;-42
2024/01/07 05:25:45;;;;;;;7.53;2.53;;;;;;;-2.37;100.00;102431.72;4984278;28;20565;-42
2024/01/07 05:28:11;;;;;;;5.38;2.35;;;;;;;-2.40;100.00;102439.50;4981432;28;20190;-42
2024/01/07 05:30:38;;;;;;;3.60;2.25;;;;;;;-2.43;100.00;102437.59;4987071;28;20181;-43
2024/01/07 05:33:03;;;;;;;6.55;2.63;;;;;;;-2.44;100.00;102437.56;4982833;28;20249;-42
2024/01/07 05:35:30;;;;;;;6.75;2.25;;;;;;;-2.44;100.00;102443.72;4973288;28;20575;-41
2024/01/07 05:37:55;;;;;;;3.20;2.42;;;;;;;-2.45;100.00;102438.38;4981246;28;20185;-41
2024/01/07 05:40:21;;;;;;;6.25;2.97;;;;;;;-2.51;100.00;102439.94;4967214;28;20229;-42
2024/01/07 05:42:47;;;;;;;4.07;2.17;;;;;;;-2.51;100.00;102442.56;4982623;28;20181;-42
2024/01/07 05:45:12;;;;;;;6.88;2.90;;;;;;;-2.46;100.00;102448.00;4985536;28;20224;-41
2024/01/07 05:47:38;;;;;;;6.70;3.08;;;;;;;-2.56;100.00;102452.00;4983388;28;20188;-41
2024/01/07 05:50:04;;;;;;;4.85;2.67;;;;;;;-2.58;100.00;102451.03;4982337;28;20597;-41
2024/01/07 05:52:29;;;;;;;6.40;2.83;;;;;;;-2.57;100.00;102457.16;4977310;28;20253;-42
2024/01/07 05:54:55;;;;;;;4.75;2.65;;;;;;;-2.59;100.00;102464.97;4983678;28;20267;-40
2024/01/07 05:57:20;;;;;;;3.03;2.42;;;;;;;-2.57;100.00;102465.03;4982021;28;20598;-43
2024/01/07 05:59:46;;;;;;;4.18;2.38;;;;;;;-2.64;100.00;102466.50;4980683;28;20205;-42
2024/01/07 06:02:12;;;;;;;10.07;2.58;;;;;;;-2.70;100.00;102464.50;4987245;28;20216;-42
2024/01/07 06:04:38;;;;;;;5.22;2.92;;;;;;;-2.71;100.00;102467.09;4984979;28;20213;-41
2024/01/07 06:07:04;;;;;;;5.00;2.72;;;;;;;-2.76;100.00;102465.97;4982480;28;20193;-41
2024/01/07 06:09:30;;;;;;;5.90;2.75;;;;;;;-2.72;100.00;102473.16;4982611;28;20190;-41
2024/01/07 06:11:55;;;;;;;6.97;2.80;;;;;;;-2.74;100.00;102477.44;4984486;28;20201;-40
2024/01/07 06:14:22;;;;;;;4.75;2.33;;;;;;;-2.76;100.00;102485.22;4970676;28;20297;-43
2024/01/07 06:16:48;;;;;;;4.15;2.13;;;;;;;-2.84;100.00;102497.13;4986323;28;20193;-41
2024/01/07 06:19:17;;;;;;;4.00;2.53;;;;;;;-2.77;100.00;102493.94;4952604;28;20186;-42
2024/01/07 06:21:43;;;;;;;3.45;2.40;;;;;;;-2.81;100.00;102492.00;4969433;28;20178;-41
2024/01/07 06:24:08;;;;;;;3.83;2.53;;;;;;;-2.79;100.00;102492.09;4979070;28;20587;-41
2024/01/07 06:26:34;;;;;;;3.92;2.33;;;;;;;-2.80;100.00;102499.06;4985637;28;20186;-42
2024/01/07 06:29:00;;;;;;;4.65;2.35;;;;;;;-2.82;100.00;102499.81;4981087;28;20192;-41
2024/01/07 06:31:25;;;;;;;6.45;2.40;;;;;;;-2.87;100.00;102503.97;4983418;28;20181;-40
2024/01/07 06:33:51;;;;;;;5.88;3.40;;;;;;;-2.92;100.00;102515.13;4979989;28;20241;-41
2024/01/07 06:36:17;;;;;;;5.93;2.60;;;;;;;-2.87;100.00;102510.09;4979485;28;20193;-41
2024/01/07 06:38:45;;;;;;;6.28;2.63;;;;;;;-2.83;100.00;102519.00;4984810;28;20200;-42
2024/01/07 06:41:12;;;;;;;4.68;2.15;;;;;;;-2.89;100.00;102517.00;4981814;28;20212;-42
2024/01/07 06:43:38;;;;;;;4.68;2.60;;;;;;;-2.85;100.00;102515.41;4980954;28;20222;-42
2024/01/07 06:46:04;;;;;;;8.73;2.65;;;;;;;-2.87;100.00;102530.19;4981133;28;20178;-40
2024/01/07 06:48:30;;;;;;;4.82;2.60;;;;;;;-2.89;100.00;102519.63;4982779;28;20193;-43
2024/01/07 06:50:56;;;;;;;4.78;2.45;;;;;;;-2.90;100.00;102542.34;4980836;28;20181;-42
2024/01/07 06:53:21;;;;;;;2.97;2.42;;;;;;;-2.90;100.00;102537.09;4979942;28;20204;-41
2024/01/07 06:55:47;;;;;;;5.05;3.33;;;;;;;-2.90;100.00;102544.06;4982201;28;20236;-41
2024/01/07 06:58:13;;;;;;;3.95;2.33;;;;;;;-2.92;100.00;102546.59;4977676;28;20612;-42
2024/01/07 07:00:38;;;;;;;2.63;2.15;;;;;;;-2.94;100.00;102556.13;4984241;28;20196;-42
2024/01/07 07:03:05;;;;;;;5.75;2.40;;;;;;;-2.99;100.00;102547.16;4979823;28;20189;-42
2024/01/07 07:05:31;;;;;;;3.42;2.10;;;;;;;-2.98;100.00;102543.72;4984418;28;20304;-40
2024/01/07 07:07:57;;;;;;;3.25;2.05;;;;;;;-3.03;100.00;102554.84;4978441;28;20186;-40
2024/01/07 07:10:23;;;;;;;2.88;1.83;;;;;;;-3.02;100.00;102556.63;4980729;28;20240;-41
2024/01/07 07:12:50;;;;;;;5.97;2.22;;;;;;;-3.13;100.00;102551.81;4989484;28;20174;-40
2024/01/07 07:15:16;;;;;;;3.28;1.80;;;;;;;-3.09;100.00;102550.19;4976683;28;20323;-42
2024/01/07 07:17:41;;;;;;;3.08;2.00;;;;;;;-3.17;100.00;102555.13;4988959;28;20216;-43
2024/01/07 07:20:08;;;;;;;3.33;2.08;;;;;;;-3.14;100.00;102555.25;4998078;28;20510;-39
2024/01/07 07:22:34;;;;;;;3.88;1.95;;;;;;;-3.16;100.00;102556.88;4990495;28;20612;-40
2024/01/07 07:25:00;;;;;;;2.50;1.88;;;;;;;-3.16;100.00;102556.88;5003141;28;20224;-41
2024/01/07 07:27:25;;;;;;;4.85;1.92;;;;;;;-3.15;100.00;102560.41;4998601;28;20173;-41
2024/01/07 07:29:51;;;;;;;4.63;1.88;;;;;;;-3.15;100.00;102560.41;4993279;28;20208;-41
2024/01/07 07:32:16;;;;;;;2.78;1.77;;;;;;;-3.17;100.00;102564.66;4952381;28;20549;-41
2024/01/07 07:34:42;;;;;;;2.63;1.65;;;;;;;-3.22;100.00;102568.81;4978221;28;20250;-42
2024/01/07 07:37:07;;;;;;;4.55;1.95;;;;;;;-3.24;100.00;102578.34;4977342;28;20174;-43
2024/01/07 07:39:33;;;;;;;1.35;1.25;;;;;;;-3.19;100.00;102576.81;4983714;28;20556;-43
2024/01/07 07:41:58;;;;;;;3.40;1.60;;;;;;;-3.24;100.00;102575.72;4981792;28;20181;-43
2024/01/07 07:44:26;;;;;;;4.05;1.58;;;;;;;-3.23;100.00;102582.75;4963707;28;20678;-43
2024/01/07 07:46:51;;;;;;;2.60;1.40;;;;;;;-3.27;100.00;102586.06;4979143;28;20181;-44
2024/01/07 07:49:17;;;;;;;3.72;1.85;;;;;;;-3.29;100.00;102588.59;4981096;28;20592;-42
2024/01/07 07:51:43;;;;;;;5.75;1.95;;;;;;;-3.24;100.00;102594.06;4970625;28;20189;-42
2024/01/07 07:54:09;;;;;;;3.00;1.80;;;;;;;-3.24;100.00;102589.72;4981383;28;20202;-42
2024/01/07 07:56:35;;;;;;;2.28;1.60;;;;;;;-3.27;100.00;102591.31;4985064;28;20181;-42
2024/01/07 07:59:02;;;;;;;2.78;1.50;;;;;;;-3.28;100.00;102602.59;4980744;28;20287;-42
2024/01/07 08:01:28;;;;;;;3.00;1.75;;;;;;;-3.30;100.00;102597.31;4981849;28;20508;-42
2024/01/07 08:03:53;;;;;;;2.83;1.80;;;;;;;-3.21;100.00;102596.84;4980640;28;20544;-42
2024/01/07 08:06:19;;;;;;;3.63;1.75;;;;;;;-3.22;100.00;102595.03;4982109;28;20177;-41
2024/01/07 08:08:45;;;;;;;3.35;1.95;;;;;;;-3.18;100.00;102604.84;4983387;28;20181;-42
2024/01/07 08:11:10;;;;;;;4.10;2.03;;;;;;;-3.16;100.00;102608.44;4983705;28;20241;-41
2024/01/07 08:13:37;;;;;;;6.03;2.15;;;;;;;-3.21;100.00;102604.72;4983283;28;20201;-43
2024/01/07 08:16:03;;;;;;;6.78;2.13;;;;;;;-3.16;100.00;102605.81;4979957;28;20302;-44
2024/01/07 08:18:29;;;;;;;2.60;2.10;;;;;;;-3.18;100.00;102615.31;4984233;28;20193;-41
2024/01/07 08:20:54;;;;;;;2.72;2.15;;;;;;;-3.19;100.00;102605.66;4982714;28;20678;-41
2024/01/07 08:23:21;;;;;;;5.45;1.80;;;;;;;-3.24;100.00;102609.78;4990742;28;20209;-44
2024/01/07 08:25:46;;;;;;;3.28;1.92;;;;;;;-3.23;100.00;102612.50;4985908;28;20656;-43
2024/01/07 08:28:12;;;;;;;3.47;2.03;;;;;;;-3.25;100.00;102627.25;4981584;28;20178;-43
2024/01/07 08:30:37;;;;;;;5.50;2.40;;;;;;;-3.23;100.00;102624.69;4975204;28;20217;-42
2024/01/07 08:33:03;;;;;;;2.20;2.00;;;;;;;-3.20;100.00;102630.06;4991075;28;20255;-42
2024/01/07 08:35:28;;;;;;;4.70;2.35;;;;;;;-3.19;100.00;102624.00;4987245;28;20188;-42
2024/01/07 08:37:54;;;;;;;2.92;1.83;;;;;;;-3.15;100.00;102632.09;4989689;28;20284;-42
2024/01/07 08:40:19;;;;;;;3.83;2.30;;;;;;;-3.16;100.00;102634.66;4987095;28;20182;-42
2024/01/07 08:42:45;;;;;;;2.85;1.85;;;;;;;-3.17;100.00;102628.50;4985674;28;20212;-40
2024/01/07 08:45:11;;;;;;;2.20;2.00;;;;;;;-3.12;100.00;102639.22;4986240;28;20241;-41
2024/01/07 08:47:36;;;;;;;3.25;2.22;;;;;;;-3.01;100.00;102637.97;4979808;28;20180;-41
2024/01/07 08:50:03;;;;;;;2.60;1.77;;;;;;;-2.94;100.00;102632.19;4990804;28;20284;-42
2024/01/07 08:52:28;;;;;;;3.25;2.13;;;;;;;-2.97;100.00;102649.53;4988164;28;20639;-41
2024/01/07 08:54:55;;;;;;;4.47;1.60;;;;;;;-2.96;100.00;102649.56;4986327;28;20208;-42
2024/01/07 08:57:20;;;;;;;2.22;1.80;;;;;;;-2.97;100.00;102646.91;4984623;28;20178;-43
2024/01/07 08:59:46;;;;;;;5.25;1.80;;;;;;;-2.90;100.00;102644.63;4985758;28;20180;-44
2024/01/07 09:02:13;;;;;;;2.65;1.85;;;;;;;-2.77;100.00;102650.44;4980228;28;20194;-43
2024/01/07 09:04:39;;;;;;;4.63;2.30;;;;;;;-2.87;100.00;102645.59;4988253;28;20705;-42
2024/01/07 09:07:04;;;;;;;4.22;2.30;;;;;;;-2.77;100.00;102639.94;4983184;28;20185;-43
2024/01/07 09:09:29;;;;;;;3.08;1.67;;;;;;;-2.71;100.00;102650.72;4989756;28;20278;-43
2024/01/07 09:11:56;;;;;;;2.83;1.98;;;;;;;-2.71;100.00;102637.59;4981703;28;20173;-43
2024/01/07 09:14:22;;;;;;;3.25;1.60;;;;;;;-2.70;100.00;102636.75;4984621;28;20268;-40
2024/01/07 09:16:48;;;;;;;2.00;1.60;;;;;;;-2.63;99.63;102635.31;4987405;28;20189;-41
2024/01/07 09:19:13;;;;;;;2.28;1.45;;;;;;;-2.55;98.77;102640.06;4976432;28;20515;-43
2024/01/07 09:21:39;;;;;;;1.75;1.52;;;;;;;-2.58;98.62;102632.06;4991243;28;20181;-41
2024/01/07 09:24:05;;;;;;;1.80;1.30;;;;;;;-2.53;97.50;102629.66;4986673;28;20224;-42
2024/01/07 09:26:30;;;;;;;3.45;1.50;;;;;;;-2.47;97.47;102623.75;4991092;28;20184;-40
2024/01/07 09:28:56;;;;;;;4.28;1.50;;;;;;;-2.57;95.87;102619.84;4978330;28;20606;-40
2024/01/07 09:31:22;;;;;;;3.42;1.60;;;;;;;-2.60;94.64;102607.50;4987824;28;20219;-40
2024/01/07 09:33:47;;;;;;;1.85;1.25;;;;;;;-2.59;93.43;102616.25;4987253;28;20680;-41
2024/01/07 09:36:13;;;;;;;2.03;1.15;;;;;;;-2.72;91.27;102602.56;4992599;28;20174;-41
2024/01/07 09:38:40;;;;;;;1.30;1.20;;;;;;;-2.73;90.99;102589.41;4987312;28;20551;-40
2024/01/07 09:41:05;;;;;;;1.40;1.30;;;;;;;-2.73;89.89;102586.78;4983508;28;20194;-42
2024/01/07 09:43:31;;;;;;;1.58;1.35;;;;;;;-2.76;89.23;102587.53;4983504;28;20212;-41
2024/01/07 09:45:58;;;;;;;1.63;0.93;;;;;;;-2.76;88.23;102584.00;4990687;28;20185;-45
2024/01/07 09:48:24;;;;;;;3.38;1.27;;;;;;;-2.63;88.61;102578.47;4985089;28;20273;-44
2024/01/07 09:50:51;;;;;;;1.15;1.05;;;;;;;-2.63;88.01;102583.72;4975533;28;20187;-43
2024/01/07 09:53:20;;;;;;;2.15;1.48;;;;;;;-2.69;87.53;102572.94;4985403;28;20181;-42
2024/01/07 09:56:07;;;;;;;2.13;0.95;;;;;;;-2.72;87.14;102581.59;4988618;28;20537;-45
2024/01/07 09:58:33;;;;;;;2.95;1.10;;;;;;;-2.76;86.50;102573.53;4987278;28;20220;-43
2024/01/07 10:00:59;;;;;;;1.02;1.02;;;;;;;-2.59;86.58;102587.38;4980890;28;20198;-42
2024/01/07 10:03:25;;;;;;;1.55;1.23;;;;;;;-2.72;86.59;102570.22;4990407;28;20675;-46
2024/01/07 10:05:51;;;;;;;2.30;1.30;;;;;;;-2.69;86.48;102591.31;4984344;28;20186;-41
2024/01/07 10:08:17;;;;;;;1.83;1.05;;;;;;;-2.55;87.18;102587.59;4985901;28;20177;-40
2024/01/07 10:10:43;;;;;;;1.88;1.70;;;;;;;-2.52;87.94;102595.56;4986152;28;20189;-41
2024/01/07 10:13:09;;;;;;;2.28;1.50;;;;;;;-2.73;87.19;102595.56;4984713;28;20181;-42
2024/01/07 10:15:34;;;;;;;3.30;1.50;;;;;;;-2.62;88.20;102595.13;4985764;28;20211;-41
2024/01/07 10:18:07;;;;;;;1.95;1.50;;;;;;;-2.63;88.43;102609.06;4965752;28;20363;-41
2024/01/07 10:20:34;;;;;;;1.70;1.40;;;;;;;-2.56;88.56;102598.00;4994441;28;20189;-40
2024/01/07 10:23:00;;;;;;;1.60;1.30;;;;;;;-2.70;89.53;102607.91;4983947;28;20191;-40
2024/01/07 10:25:26;;;;;;;2.05;1.55;;;;;;;-2.72;89.30;102623.56;4989680;28;20672;-42
2024/01/07 10:27:52;;;;;;;5.68;1.60;;;;;;;-2.60;89.28;102618.00;4984747;28;20277;-41
2024/01/07 10:30:17;;;;;;;5.22;1.80;;;;;;;-2.65;89.26;102622.09;4966162;28;20243;-41
2024/01/07 10:32:43;;;;;;;3.75;1.63;;;;;;;-2.47;90.43;102623.75;4989989;28;20642;-40
2024/01/07 10:35:12;;;;;;;1.73;1.40;;;;;;;-2.68;90.02;102616.75;4990525;28;20247;-42
2024/01/07 10:37:39;;;;;;;1.58;1.48;;;;;;;-2.77;90.74;102624.19;4982944;28;20181;-42
2024/01/07 10:40:07;;;;;;;1.77;1.65;;;;;;;-2.74;90.46;102616.47;4984391;28;20189;-42
2024/01/07 10:42:33;;;;;;;2.70;1.50;;;;;;;-2.64;91.09;102630.91;4979432;28;20726;-43
2024/01/07 10:45:00;;;;;;;2.50;2.08;;;;;;;-2.63;90.59;102635.31;4991064;28;20566;-43
2024/01/07 10:47:30;;;;;;;3.08;1.70;;;;;;;-2.90;89.67;102639.38;4987859;28;20259;-42
2024/01/07 10:49:58;;;;;;;2.05;1.50;;;;;;;-3.03;89.85;102633.50;4989315;28;20184;-41
2024/01/07 10:52:26;;;;;;;1.35;1.08;;;;;;;-3.02;89.93;102620.44;4985013;28;20190;-39
2024/01/07 10:54:53;;;;;;;2.25;1.55;;;;;;;-2.95;88.93;102625.16;4984734;28;20203;-42
2024/01/07 10:57:35;;;;;;;2.85;1.33;;;;;;;-2.94;89.64;102629.56;4984153;28;20232;-42
2024/01/07 11:00:06;;;;;;;1.23;1.10;;;;;;;-2.84;89.26;102633.53;4980580;28;20223;-42
2024/01/07 11:02:38;;;;;;;4.07;1.60;;;;;;;-2.92;88.71;102627.91;4987667;28;20193;-41
2024/01/07 11:05:15;;;;;;;4.40;1.40;;;;;;;-2.88;88.12;102626.34;4985723;28;20213;-41
2024/01/07 11:07:44;;;;;;;1.40;1.10;;;;;;;-2.98;88.04;102626.72;4982705;28;20193;-43
2024/01/07 11:10:14;;;;;;;2.95;1.65;;;;;;;-2.88;88.11;102631.59;4977399;28;20182;-42
2024/01/07 11:12:41;;;;;;;2.47;1.58;;;;;;;-2.97;87.87;102632.06;4984916;28;20173;-43
2024/01/07 11:15:07;;;;;;;1.70;1.17;;;;;;;-2.88;87.97;102626.34;4940854;23;20564;-41